sensor_id;sensor_type;location;lat;lon;timestamp;pressure;altitude;pressure_sealevel;temperature;humidity
24610;BME280;12758;47.890;11.694;2023-01-26T00:01:44;94067.94;;;-1.11;100.00
24610;BME280;12758;47.890;11.694;2023-01-26T00:04:10;94069.72;;;-0.90;100.00
24610;BME280;12758;47.890;11.694;2023-01-26T00:06:36;94067.78;;;-1.00;100.00
24610;BME280;12758;47.890;11.694;2023-01-26T00:09:02;94065.56;;;-0.81;100.00
24610;BME280;12758;47.890;11.694;2023-01-26T00:11:29;94059.59;;;-0.66;100.00
24610;BME280;12758;47.890;11.694;2023-01-26T00:13:56;94059.25;;;-1.02;100.00
24610;BME280;12758;47.890;11.694;2023-01-26T00:16:22;94065.66;;;-1.47;100.00
24610;BME280;12758;47.890;11.694;2023-01-26T00:18:49;94066.66;;;-1.53;100.00
24610;BME280;12758;47.890;11.694;2023-01-26T00:21:16;94058.84;;;-1.81;100.00
24610;BME280;12758;47.890;11.694;2023-01-26T00:23:43;94065.16;;;-1.88;100.00
24610;BME280;12758;47.890;11.694;2023-01-26T00:26:10;94071.44;;;-1.94;100.00
24610;BME280;12758;47.890;11.694;2023-01-26T00:28:38;94063.25;;;-1.92;100.00
24610;BME280;12758;47.890;11.694;2023-01-26T00:31:05;94056.25;;;-1.76;100.00
24610;BME280;12758;47.890;11.694;2023-01-26T00:33:31;94055.41;;;-1.60;100.00
24610;BME280;12758;47.890;11.694;2023-01-26T00:35:58;94060.03;;;-1.28;100.00
24610;BME280;12758;47.890;11.694;2023-01-26T00:38:24;94052.06;;;-1.50;100.00
24610;BME280;12758;47.890;11.694;2023-01-26T00:40:50;94043.78;;;-1.54;100.00
24610;BME280;12758;47.890;11.694;2023-01-26T00:43:16;94051.25;;;-1.51;100.00
24610;BME280;12758;47.890;11.694;2023-01-26T00:45:42;94043.50;;;-1.74;100.00
24610;BME280;12758;47.890;11.694;2023-01-26T00:48:08;94047.28;;;-1.92;100.00
24610;BME280;12758;47.890;11.694;2023-01-26T00:50:34;94042.13;;;-1.99;100.00
24610;BME280;12758;47.890;11.694;2023-01-26T00:53:01;94031.75;;;-1.78;100.00
24610;BME280;12758;47.890;11.694;2023-01-26T00:55:27;94045.28;;;-1.36;100.00
24610;BME280;12758;47.890;11.694;2023-01-26T00:57:56;94050.78;;;-0.94;100.00
24610;BME280;12758;47.890;11.694;2023-01-26T01:00:22;94052.81;;;-1.06;100.00
24610;BME280;12758;47.890;11.694;2023-01-26T01:02:48;94048.34;;;-0.73;100.00
24610;BME280;12758;47.890;11.694;2023-01-26T01:05:15;94044.91;;;-0.68;100.00
24610;BME280;12758;47.890;11.694;2023-01-26T01:07:41;94044.69;;;-1.16;100.00
24610;BME280;12758;47.890;11.694;2023-01-26T01:10:09;94042.53;;;-1.68;100.00
24610;BME280;12758;47.890;11.694;2023-01-26T01:12:35;94043.00;;;-1.71;100.00
24610;BME280;12758;47.890;11.694;2023-01-26T01:15:01;94036.78;;;-1.60;100.00
24610;BME280;12758;47.890;11.694;2023-01-26T01:17:27;94041.28;;;-1.82;100.00
24610;BME280;12758;47.890;11.694;2023-01-26T01:19:53;94039.66;;;-1.83;100.00
24610;BME280;12758;47.890;11.694;2023-01-26T01:22:19;94043.88;;;-1.88;100.00
24610;BME280;12758;47.890;11.694;2023-01-26T01:24:45;94037.56;;;-1.81;100.00
24610;BME280;12758;47.890;11.694;2023-01-26T01:27:11;94036.78;;;-1.60;100.00
24610;BME280;12758;47.890;11.694;2023-01-26T01:29:37;94033.13;;;-1.54;100.00
24610;BME280;12758;47.890;11.694;2023-01-26T01:32:03;94036.50;;;-1.80;100.00
24610;BME280;12758;47.890;11.694;2023-01-26T01:34:29;94036.81;;;-1.99;100.00
24610;BME280;12758;47.890;11.694;2023-01-26T01:36:55;94040.38;;;-2.10;100.00
24610;BME280;12758;47.890;11.694;2023-01-26T01:39:21;94038.19;;;-2.13;100.00
24610;BME280;12758;47.890;11.694;2023-01-26T01:41:47;94037.97;;;-2.28;100.00
24610;BME280;12758;47.890;11.694;2023-01-26T01:44:16;94034.81;;;-2.08;100.00
24610;BME280;12758;47.890;11.694;2023-01-26T01:46:46;94031.44;;;-1.11;100.00
24610;BME280;12758;47.890;11.694;2023-01-26T01:49:16;94028.44;;;-1.42;100.00
24610;BME280;12758;47.890;11.694;2023-01-26T01:51:45;94025.19;;;-1.71;100.00
24610;BME280;12758;47.890;11.694;2023-01-26T01:54:15;94024.41;;;-1.22;100.00
24610;BME280;12758;47.890;11.694;2023-01-26T01:56:44;94027.53;;;-1.52;100.00
24610;BME280;12758;47.890;11.694;2023-01-26T01:59:12;94020.88;;;-1.06;100.00
24610;BME280;12758;47.890;11.694;2023-01-26T02:01:39;94009.47;;;-1.72;100.00
24610;BME280;12758;47.890;11.694;2023-01-26T02:04:06;94014.19;;;-1.79;100.00
24610;BME280;12758;47.890;11.694;2023-01-26T02:06:35;94019.31;;;-1.95;100.00
24610;BME280;12758;47.890;11.694;2023-01-26T02:09:04;94019.59;;;-2.13;100.00
24610;BME280;12758;47.890;11.694;2023-01-26T02:11:32;94019.03;;;-2.15;100.00
24610;BME280;12758;47.890;11.694;2023-01-26T02:13:59;94021.69;;;-2.15;100.00
24610;BME280;12758;47.890;11.694;2023-01-26T02:16:27;94006.91;;;-2.06;100.00
24610;BME280;12758;47.890;11.694;2023-01-26T02:18:54;94013.75;;;-1.22;100.00
24610;BME280;12758;47.890;11.694;2023-01-26T02:21:20;94012.63;;;-0.72;100.00
24610;BME280;12758;47.890;11.694;2023-01-26T02:23:53;94011.84;;;-1.00;100.00
24610;BME280;12758;47.890;11.694;2023-01-26T02:26:22;94011.22;;;-1.12;100.00
24610;BME280;12758;47.890;11.694;2023-01-26T02:28:49;94010.56;;;-1.46;100.00
24610;BME280;12758;47.890;11.694;2023-01-26T02:31:17;94003.91;;;-1.49;100.00
24610;BME280;12758;47.890;11.694;2023-01-26T02:33:43;94006.22;;;-1.30;100.00
24610;BME280;12758;47.890;11.694;2023-01-26T02:36:16;94003.47;;;-0.81;100.00
24610;BME280;12758;47.890;11.694;2023-01-26T02:38:43;94001.00;;;-0.61;100.00
24610;BME280;12758;47.890;11.694;2023-01-26T02:41:11;93987.31;;;-0.37;100.00
24610;BME280;12758;47.890;11.694;2023-01-26T02:43:59;93991.66;;;-0.21;100.00
24610;BME280;12758;47.890;11.694;2023-01-26T02:46:25;93993.31;;;-0.15;100.00
24610;BME280;12758;47.890;11.694;2023-01-26T02:48:51;93988.81;;;-0.09;100.00
24610;BME280;12758;47.890;11.694;2023-01-26T02:51:46;93984.84;;;-0.02;100.00
24610;BME280;12758;47.890;11.694;2023-01-26T02:54:12;93985.25;;;-0.25;100.00
24610;BME280;12758;47.890;11.694;2023-01-26T02:56:59;93981.09;;;-0.06;100.00
24610;BME280;12758;47.890;11.694;2023-01-26T02:59:25;93971.94;;;-0.20;100.00
24610;BME280;12758;47.890;11.694;2023-01-26T03:01:52;93975.25;;;0.03;100.00
24610;BME280;12758;47.890;11.694;2023-01-26T03:04:20;93965.00;;;-0.96;100.00
24610;BME280;12758;47.890;11.694;2023-01-26T03:06:46;93954.78;;;-1.63;100.00
24610;BME280;12758;47.890;11.694;2023-01-26T03:09:12;93964.63;;;-2.07;100.00
24610;BME280;12758;47.890;11.694;2023-01-26T03:11:38;93959.84;;;-1.83;100.00
24610;BME280;12758;47.890;11.694;2023-01-26T03:14:06;93960.19;;;-1.26;100.00
24610;BME280;12758;47.890;11.694;2023-01-26T03:16:33;93956.63;;;-0.77;100.00
24610;BME280;12758;47.890;11.694;2023-01-26T03:18:59;93955.09;;;-0.68;100.00
24610;BME280;12758;47.890;11.694;2023-01-26T03:21:43;93960.59;;;-0.42;100.00
24610;BME280;12758;47.890;11.694;2023-01-26T03:24:28;93959.09;;;-0.28;100.00
24610;BME280;12758;47.890;11.694;2023-01-26T03:27:12;93964.50;;;-0.18;100.00
24610;BME280;12758;47.890;11.694;2023-01-26T03:29:53;93948.53;;;-0.08;100.00
24610;BME280;12758;47.890;11.694;2023-01-26T03:32:20;93941.59;;;-0.09;100.00
24610;BME280;12758;47.890;11.694;2023-01-26T03:34:46;93953.09;;;0.02;100.00
24610;BME280;12758;47.890;11.694;2023-01-26T03:37:12;93949.09;;;-0.01;100.00
24610;BME280;12758;47.890;11.694;2023-01-26T03:39:38;93948.56;;;0.03;100.00
24610;BME280;12758;47.890;11.694;2023-01-26T03:42:22;93949.41;;;0.08;100.00
24610;BME280;12758;47.890;11.694;2023-01-26T03:45:07;93937.53;;;-0.21;100.00
24610;BME280;12758;47.890;11.694;2023-01-26T03:47:52;93942.53;;;-0.35;100.00
24610;BME280;12758;47.890;11.694;2023-01-26T03:50:36;93942.97;;;-0.49;100.00
24610;BME280;12758;47.890;11.694;2023-01-26T03:53:22;93940.75;;;-0.14;100.00
24610;BME280;12758;47.890;11.694;2023-01-26T03:56:07;93938.03;;;-0.25;100.00
24610;BME280;12758;47.890;11.694;2023-01-26T03:58:45;93935.22;;;-0.03;100.00
24610;BME280;12758;47.890;11.694;2023-01-26T04:01:12;93939.72;;;-0.08;100.00
24610;BME280;12758;47.890;11.694;2023-01-26T04:03:46;93942.16;;;-0.02;100.00
24610;BME280;12758;47.890;11.694;2023-01-26T04:06:31;93940.44;;;-0.23;100.00
24610;BME280;12758;47.890;11.694;2023-01-26T04:09:15;93939.75;;;-0.51;100.00
24610;BME280;12758;47.890;11.694;2023-01-26T04:11:41;93942.31;;;-0.29;100.00
24610;BME280;12758;47.890;11.694;2023-01-26T04:14:09;93940.59;;;0.08;100.00
24610;BME280;12758;47.890;11.694;2023-01-26T04:16:54;93935.84;;;0.20;100.00
24610;BME280;12758;47.890;11.694;2023-01-26T04:19:38;93937.94;;;0.08;100.00
24610;BME280;12758;47.890;11.694;2023-01-26T04:22:23;93936.94;;;0.24;100.00
24610;BME280;12758;47.890;11.694;2023-01-26T04:24:49;93925.94;;;0.15;100.00
24610;BME280;12758;47.890;11.694;2023-01-26T04:27:15;93929.16;;;0.17;100.00
24610;BME280;12758;47.890;11.694;2023-01-26T04:29:41;93928.44;;;0.32;100.00
24610;BME280;12758;47.890;11.694;2023-01-26T04:32:07;93925.22;;;0.35;100.00
24610;BME280;12758;47.890;11.694;2023-01-26T04:34:33;93929.19;;;0.28;100.00
24610;BME280;12758;47.890;11.694;2023-01-26T04:36:59;93922.50;;;0.20;100.00
24610;BME280;12758;47.890;11.694;2023-01-26T04:39:25;93927.88;;;0.30;100.00
24610;BME280;12758;47.890;11.694;2023-01-26T04:41:51;93925.19;;;0.25;100.00
24610;BME280;12758;47.890;11.694;2023-01-26T04:44:17;93920.91;;;0.24;100.00
24610;BME280;12758;47.890;11.694;2023-01-26T04:46:43;93922.53;;;0.30;100.00
24610;BME280;12758;47.890;11.694;2023-01-26T04:49:10;93923.31;;;0.20;100.00
24610;BME280;12758;47.890;11.694;2023-01-26T04:51:36;93920.94;;;0.29;100.00
24610;BME280;12758;47.890;11.694;2023-01-26T04:54:03;93922.56;;;0.40;100.00
24610;BME280;12758;47.890;11.694;2023-01-26T04:56:30;93920.63;;;0.26;100.00
24610;BME280;12758;47.890;11.694;2023-01-26T04:58:57;93926.16;;;-0.02;100.00
24610;BME280;12758;47.890;11.694;2023-01-26T05:01:24;93918.78;;;0.26;100.00
24610;BME280;12758;47.890;11.694;2023-01-26T05:03:50;93920.94;;;0.29;100.00
24610;BME280;12758;47.890;11.694;2023-01-26T05:06:16;93931.63;;;0.29;100.00
24610;BME280;12758;47.890;11.694;2023-01-26T05:08:42;93922.53;;;0.30;100.00
24610;BME280;12758;47.890;11.694;2023-01-26T05:11:08;93925.16;;;0.15;100.00
24610;BME280;12758;47.890;11.694;2023-01-26T05:13:35;93919.22;;;-0.03;100.00
24610;BME280;12758;47.890;11.694;2023-01-26T05:16:01;93921.94;;;0.08;100.00
24610;BME280;12758;47.890;11.694;2023-01-26T05:18:28;93919.84;;;0.20;100.00
24610;BME280;12758;47.890;11.694;2023-01-26T05:20:54;93923.44;;;-0.07;100.00
24610;BME280;12758;47.890;11.694;2023-01-26T05:23:21;93922.41;;;-0.01;100.00
24610;BME280;12758;47.890;11.694;2023-01-26T05:25:47;93917.06;;;-0.01;100.00
24610;BME280;12758;47.890;11.694;2023-01-26T05:28:13;93915.31;;;-0.32;100.00
24610;BME280;12758;47.890;11.694;2023-01-26T05:30:39;93909.69;;;-0.83;100.00
24610;BME280;12758;47.890;11.694;2023-01-26T05:33:07;93914.00;;;-1.42;100.00
24610;BME280;12758;47.890;11.694;2023-01-26T05:35:34;93917.66;;;-1.75;100.00
24610;BME280;12758;47.890;11.694;2023-01-26T05:38:00;93909.59;;;-2.07;100.00
24610;BME280;12758;47.890;11.694;2023-01-26T05:40:26;93906.94;;;-2.07;100.00
24610;BME280;12758;47.890;11.694;2023-01-26T05:42:53;93921.84;;;-2.06;100.00
24610;BME280;12758;47.890;11.694;2023-01-26T05:45:20;93920.50;;;-2.08;100.00
24610;BME280;12758;47.890;11.694;2023-01-26T05:47:46;93914.50;;;-1.99;100.00
24610;BME280;12758;47.890;11.694;2023-01-26T05:50:13;93922.63;;;-1.29;100.00
24610;BME280;12758;47.890;11.694;2023-01-26T05:52:40;93926.41;;;-1.25;100.00
24610;BME280;12758;47.890;11.694;2023-01-26T05:55:07;93935.28;;;-0.77;100.00
24610;BME280;12758;47.890;11.694;2023-01-26T05:57:33;93930.63;;;-0.60;100.00
24610;BME280;12758;47.890;11.694;2023-01-26T05:59:59;93935.56;;;-0.36;100.00
24610;BME280;12758;47.890;11.694;2023-01-26T06:02:25;93935.41;;;-0.67;100.00
24610;BME280;12758;47.890;11.694;2023-01-26T06:04:52;93935.78;;;-0.85;100.00
24610;BME280;12758;47.890;11.694;2023-01-26T06:07:18;93931.44;;;-0.59;100.00
24610;BME280;12758;47.890;11.694;2023-01-26T06:09:44;93935.22;;;-0.87;100.00
24610;BME280;12758;47.890;11.694;2023-01-26T06:12:13;93921.72;;;-1.67;100.00
24610;BME280;12758;47.890;11.694;2023-01-26T06:14:39;93924.81;;;-2.24;100.00
24610;BME280;12758;47.890;11.694;2023-01-26T06:17:05;93928.09;;;-2.17;100.00
24610;BME280;12758;47.890;11.694;2023-01-26T06:19:32;93923.69;;;-1.84;100.00
24610;BME280;12758;47.890;11.694;2023-01-26T06:21:58;93931.69;;;-1.30;100.00
24610;BME280;12758;47.890;11.694;2023-01-26T06:24:24;93929.28;;;-1.59;100.00
24610;BME280;12758;47.890;11.694;2023-01-26T06:26:50;93927.94;;;-1.83;100.00
24610;BME280;12758;47.890;11.694;2023-01-26T06:29:16;93932.44;;;-1.62;100.00
24610;BME280;12758;47.890;11.694;2023-01-26T06:31:42;93937.06;;;-2.01;100.00
24610;BME280;12758;47.890;11.694;2023-01-26T06:34:08;93926.69;;;-1.54;100.00
24610;BME280;12758;47.890;11.694;2023-01-26T06:36:36;93923.13;;;-1.05;100.00
24610;BME280;12758;47.890;11.694;2023-01-26T06:39:02;93925.28;;;-0.97;100.00
24610;BME280;12758;47.890;11.694;2023-01-26T06:41:28;93934.88;;;-1.01;100.00
24610;BME280;12758;47.890;11.694;2023-01-26T06:43:54;93933.28;;;-0.97;100.00
24610;BME280;12758;47.890;11.694;2023-01-26T06:46:20;93924.13;;;-1.38;100.00
24610;BME280;12758;47.890;11.694;2023-01-26T06:48:46;93930.72;;;-1.19;100.00
24610;BME280;12758;47.890;11.694;2023-01-26T06:51:42;93920.44;;;-1.37;100.00
24610;BME280;12758;47.890;11.694;2023-01-26T06:54:09;93934.56;;;-1.05;100.00
24610;BME280;12758;47.890;11.694;2023-01-26T06:56:36;93919.75;;;-0.90;100.00
24610;BME280;12758;47.890;11.694;2023-01-26T06:59:02;93923.91;;;-0.67;100.00
24610;BME280;12758;47.890;11.694;2023-01-26T07:01:29;93917.34;;;-0.92;100.00
24610;BME280;12758;47.890;11.694;2023-01-26T07:03:57;93924.28;;;-0.54;100.00
24610;BME280;12758;47.890;11.694;2023-01-26T07:06:23;93922.19;;;-0.47;100.00
24610;BME280;12758;47.890;11.694;2023-01-26T07:08:49;93921.16;;;-0.40;100.00
24610;BME280;12758;47.890;11.694;2023-01-26T07:11:15;93915.44;;;-0.97;100.00
24610;BME280;12758;47.890;11.694;2023-01-26T07:13:41;93915.44;;;-1.29;100.00
24610;BME280;12758;47.890;11.694;2023-01-26T07:16:09;93918.81;;;-1.06;100.00
24610;BME280;12758;47.890;11.694;2023-01-26T07:18:35;93916.13;;;-0.79;100.00
24610;BME280;12758;47.890;11.694;2023-01-26T07:21:02;93914.72;;;-0.50;100.00
24610;BME280;12758;47.890;11.694;2023-01-26T07:23:29;93918.16;;;-0.54;100.00
24610;BME280;12758;47.890;11.694;2023-01-26T07:25:56;93921.75;;;-0.28;100.00
24610;BME280;12758;47.890;11.694;2023-01-26T07:28:22;93928.72;;;-0.22;100.00
24610;BME280;12758;47.890;11.694;2023-01-26T07:30:50;93923.81;;;-0.40;100.00
24610;BME280;12758;47.890;11.694;2023-01-26T07:33:16;93919.03;;;-0.81;100.00
24610;BME280;12758;47.890;11.694;2023-01-26T07:35:42;93924.56;;;-0.87;100.00
24610;BME280;12758;47.890;11.694;2023-01-26T07:38:08;93917.38;;;-1.24;100.00
24610;BME280;12758;47.890;11.694;2023-01-26T07:40:34;93915.72;;;-1.30;100.00
24610;BME280;12758;47.890;11.694;2023-01-26T07:43:00;93920.44;;;-1.37;100.00
24610;BME280;12758;47.890;11.694;2023-01-26T07:45:27;93917.22;;;-1.39;100.00
24610;BME280;12758;47.890;11.694;2023-01-26T07:47:53;93904.41;;;-1.10;100.00
24610;BME280;12758;47.890;11.694;2023-01-26T07:50:19;93904.44;;;-0.68;100.00
24610;BME280;12758;47.890;11.694;2023-01-26T07:52:46;93905.63;;;-0.49;100.00
24610;BME280;12758;47.890;11.694;2023-01-26T07:55:12;93907.63;;;-0.71;100.00
24610;BME280;12758;47.890;11.694;2023-01-26T07:57:38;93902.09;;;-1.02;100.00
24610;BME280;12758;47.890;11.694;2023-01-26T08:00:07;93909.47;;;-0.77;100.00
24610;BME280;12758;47.890;11.694;2023-01-26T08:02:33;93906.22;;;-0.41;100.00
24610;BME280;12758;47.890;11.694;2023-01-26T08:04:59;93900.44;;;-0.23;100.00
24610;BME280;12758;47.890;11.694;2023-01-26T08:07:27;93914.47;;;-0.43;100.00
24610;BME280;12758;47.890;11.694;2023-01-26T08:09:53;93911.31;;;-0.82;100.00
24610;BME280;12758;47.890;11.694;2023-01-26T08:12:19;93905.59;;;-0.59;100.00
24610;BME280;12758;47.890;11.694;2023-01-26T08:14:45;93908.44;;;-0.23;100.00
24610;BME280;12758;47.890;11.694;2023-01-26T08:17:12;93898.88;;;-0.19;100.00
24610;BME280;12758;47.890;11.694;2023-01-26T08:19:38;93900.44;;;-0.28;100.00
24610;BME280;12758;47.890;11.694;2023-01-26T08:22:04;93910.63;;;-0.10;100.00
24610;BME280;12758;47.890;11.694;2023-01-26T08:24:30;93895.06;;;-0.38;100.00
24610;BME280;12758;47.890;11.694;2023-01-26T08:26:56;93895.41;;;-0.14;100.00
24610;BME280;12758;47.890;11.694;2023-01-26T08:29:22;93899.19;;;-0.05;100.00
24610;BME280;12758;47.890;11.694;2023-01-26T08:31:48;93891.50;;;0.04;100.00
24610;BME280;12758;47.890;11.694;2023-01-26T08:34:14;93897.38;;;0.11;100.00
24610;BME280;12758;47.890;11.694;2023-01-26T08:36:40;93894.72;;;0.16;100.00
24610;BME280;12758;47.890;11.694;2023-01-26T08:39:06;93894.72;;;0.16;100.00
24610;BME280;12758;47.890;11.694;2023-01-26T08:41:32;93897.41;;;0.21;100.00
24610;BME280;12758;47.890;11.694;2023-01-26T08:43:58;93898.88;;;-0.19;100.00
24610;BME280;12758;47.890;11.694;2023-01-26T08:46:24;93900.03;;;0.06;100.00
24610;BME280;12758;47.890;11.694;2023-01-26T08:48:50;93894.19;;;0.14;100.00
24610;BME280;12758;47.890;11.694;2023-01-26T08:51:17;93893.66;;;0.12;100.00
24610;BME280;12758;47.890;11.694;2023-01-26T08:53:43;93892.09;;;0.21;100.00
24610;BME280;12758;47.890;11.694;2023-01-26T08:56:10;93888.84;;;0.19;100.00
24610;BME280;12758;47.890;11.694;2023-01-26T08:58:37;93882.88;;;-0.19;100.00
24610;BME280;12758;47.890;11.694;2023-01-26T09:01:03;93885.69;;;-0.41;100.00
24610;BME280;12758;47.890;11.694;2023-01-26T09:03:29;93869.38;;;-0.50;100.00
24610;BME280;12758;47.890;11.694;2023-01-26T09:05:57;93883.31;;;-0.32;100.00
24610;BME280;12758;47.890;11.694;2023-01-26T09:08:24;93881.06;;;-0.61;100.00
24610;BME280;12758;47.890;11.694;2023-01-26T09:10:50;93872.13;;;-0.29;100.00
24610;BME280;12758;47.890;11.694;2023-01-26T09:13:16;93874.88;;;-0.14;100.00
24610;BME280;12758;47.890;11.694;2023-01-26T09:15:42;93874.81;;;-0.34;100.00
24610;BME280;12758;47.890;11.694;2023-01-26T09:18:08;93872.13;;;-0.29;100.00
24610;BME280;12758;47.890;11.694;2023-01-26T09:20:36;93878.63;;;-0.15;100.00
24610;BME280;12758;47.890;11.694;2023-01-26T09:23:02;93883.72;;;-0.08;100.00
24610;BME280;12758;47.890;11.694;2023-01-26T09:25:29;93875.41;;;-0.17;100.00
24610;BME280;12758;47.890;11.694;2023-01-26T09:27:55;93882.91;;;-0.09;100.00
24610;BME280;12758;47.890;11.694;2023-01-26T09:30:21;93887.81;;;-0.43;100.00
24610;BME280;12758;47.890;11.694;2023-01-26T09:32:49;93890.88;;;-1.09;100.00
24610;BME280;12758;47.890;11.694;2023-01-26T09:35:15;93888.69;;;-1.71;100.00
24610;BME280;12758;47.890;11.694;2023-01-26T09:37:41;93891.09;;;-1.43;100.00
24610;BME280;12758;47.890;11.694;2023-01-26T09:40:09;93881.97;;;-1.52;100.00
24610;BME280;12758;47.890;11.694;2023-01-26T09:42:47;93892.13;;;-1.49;100.00
24610;BME280;12758;47.890;11.694;2023-01-26T09:45:23;93891.97;;;-1.37;100.00
24610;BME280;12758;47.890;11.694;2023-01-26T09:47:58;93896.50;;;-1.32;100.00
24610;BME280;12758;47.890;11.694;2023-01-26T09:50:27;93889.31;;;-1.00;100.00
24610;BME280;12758;47.890;11.694;2023-01-26T09:52:56;93886.69;;;-0.95;100.00
24610;BME280;12758;47.890;11.694;2023-01-26T09:55:24;93896.34;;;-0.88;100.00
24610;BME280;12758;47.890;11.694;2023-01-26T09:57:54;93896.00;;;-0.55;100.00
24610;BME280;12758;47.890;11.694;2023-01-26T10:00:24;93897.41;;;-0.42;100.00
24610;BME280;12758;47.890;11.694;2023-01-26T10:02:59;93897.34;;;-0.57;100.00
24610;BME280;12758;47.890;11.694;2023-01-26T10:05:31;93888.41;;;-0.31;100.00
24610;BME280;12758;47.890;11.694;2023-01-26T10:07:58;93886.59;;;-0.20;100.00
24610;BME280;12758;47.890;11.694;2023-01-26T10:10:27;93885.47;;;-0.29;100.00
24610;BME280;12758;47.890;11.694;2023-01-26T10:12:56;93884.84;;;-0.94;100.00
24610;BME280;12758;47.890;11.694;2023-01-26T10:15:28;93882.47;;;-0.90;100.00
24610;BME280;12758;47.890;11.694;2023-01-26T10:17:55;93882.31;;;-1.11;100.00
24610;BME280;12758;47.890;11.694;2023-01-26T10:20:26;93875.28;;;-1.54;100.00
24610;BME280;12758;47.890;11.694;2023-01-26T10:22:53;93883.84;;;-1.20;100.00
24610;BME280;12758;47.890;11.694;2023-01-26T10:25:25;93882.97;;;-1.31;100.00
24610;BME280;12758;47.890;11.694;2023-01-26T10:27:52;93880.22;;;-1.09;100.00
24610;BME280;12758;47.890;11.694;2023-01-26T10:30:20;93873.47;;;-1.22;100.00
24610;BME280;12758;47.890;11.694;2023-01-26T10:32:46;93878.22;;;-1.56;100.00
24610;BME280;12758;47.890;11.694;2023-01-26T10:35:16;93873.56;;;-1.93;100.00
24610;BME280;12758;47.890;11.694;2023-01-26T10:37:43;93874.44;;;-2.14;100.00
24610;BME280;12758;47.890;11.694;2023-01-26T10:40:09;93876.00;;;-2.18;100.00
24610;BME280;12758;47.890;11.694;2023-01-26T10:42:37;93865.16;;;-1.84;100.00
24610;BME280;12758;47.890;11.694;2023-01-26T10:45:09;93872.94;;;-1.51;100.00
24610;BME280;12758;47.890;11.694;2023-01-26T10:48:03;93866.66;;;-1.39;100.00
24610;BME280;12758;47.890;11.694;2023-01-26T10:50:30;93857.28;;;-1.10;100.00
24610;BME280;12758;47.890;11.694;2023-01-26T10:52:58;93855.03;;;-0.91;100.00
24610;BME280;12758;47.890;11.694;2023-01-26T10:55:24;93860.63;;;-0.87;100.00
24610;BME280;12758;47.890;11.694;2023-01-26T10:57:50;93855.22;;;-1.03;100.00
24610;BME280;12758;47.890;11.694;2023-01-26T11:00:23;93853.28;;;-0.70;100.00
24610;BME280;12758;47.890;11.694;2023-01-26T11:02:50;93853.78;;;-0.78;100.00
24610;BME280;12758;47.890;11.694;2023-01-26T11:05:20;93853.19;;;-0.85;100.00
24610;BME280;12758;47.890;11.694;2023-01-26T11:07:47;93853.25;;;-1.50;100.00
24610;BME280;12758;47.890;11.694;2023-01-26T11:10:21;93842.81;;;-1.83;100.00
24610;BME280;12758;47.890;11.694;2023-01-26T11:12:48;93846.06;;;-2.08;100.00
24610;BME280;12758;47.890;11.694;2023-01-26T11:15:16;93852.91;;;-1.58;100.00
24610;BME280;12758;47.890;11.694;2023-01-26T11:17:47;93855.97;;;-1.72;100.00
24610;BME280;12758;47.890;11.694;2023-01-26T11:23:09;93856.72;;;-1.49;100.00
24610;BME280;12758;47.890;11.694;2023-01-26T11:25:39;93848.84;;;-1.66;100.00
24610;BME280;12758;47.890;11.694;2023-01-26T11:28:19;93850.19;;;-1.96;100.00
24610;BME280;12758;47.890;11.694;2023-01-26T11:31:07;93844.59;;;-1.94;100.00
24610;BME280;12758;47.890;11.694;2023-01-26T11:33:42;93844.28;;;-1.38;100.00
24610;BME280;12758;47.890;11.694;2023-01-26T11:36:12;93845.63;;;-1.41;100.00
24610;BME280;12758;47.890;11.694;2023-01-26T11:38:50;93838.50;;;-1.30;100.00
24610;BME280;12758;47.890;11.694;2023-01-26T11:41:25;93840.59;;;-1.65;100.00
24610;BME280;12758;47.890;11.694;2023-01-26T11:44:11;93835.19;;;-1.10;100.00
24610;BME280;12758;47.890;11.694;2023-01-26T11:46:50;93835.09;;;-0.83;100.00
24610;BME280;12758;47.890;11.694;2023-01-26T11:49:27;93826.78;;;-1.34;100.00
24610;BME280;12758;47.890;11.694;2023-01-26T11:52:08;93829.00;;;-1.85;100.00
24610;BME280;12758;47.890;11.694;2023-01-26T11:54:42;93834.69;;;-1.72;100.00
24610;BME280;12758;47.890;11.694;2023-01-26T11:57:19;93826.25;;;-1.31;100.00
24610;BME280;12758;47.890;11.694;2023-01-26T11:59:47;93826.16;;;-1.42;100.00
24610;BME280;12758;47.890;11.694;2023-01-26T12:02:23;93824.31;;;-1.41;100.00
24610;BME280;12758;47.890;11.694;2023-01-26T12:04:51;93831.19;;;-1.77;100.00
24610;BME280;12758;47.890;11.694;2023-01-26T12:07:22;93818.59;;;-2.14;100.00
24610;BME280;12758;47.890;11.694;2023-01-26T12:09:50;93819.75;;;-2.05;100.00
24610;BME280;12758;47.890;11.694;2023-01-26T12:12:19;93816.22;;;-1.83;100.00
24610;BME280;12758;47.890;11.694;2023-01-26T12:14:49;93815.47;;;-2.06;100.00
24610;BME280;12758;47.890;11.694;2023-01-26T12:17:26;93812.19;;;-1.59;100.00
24610;BME280;12758;47.890;11.694;2023-01-26T12:19:57;93813.88;;;-1.48;100.00
24610;BME280;12758;47.890;11.694;2023-01-26T12:22:32;93811.09;;;-1.63;100.00
24610;BME280;12758;47.890;11.694;2023-01-26T12:25:01;93813.88;;;-1.48;100.00
24610;BME280;12758;47.890;11.694;2023-01-26T12:27:30;93812.19;;;-1.59;100.00
24610;BME280;12758;47.890;11.694;2023-01-26T12:30:03;93818.91;;;-1.14;100.00
24610;BME280;12758;47.890;11.694;2023-01-26T12:32:31;93807.25;;;-1.08;100.00
24610;BME280;12758;47.890;11.694;2023-01-26T12:34:57;93801.28;;;-1.25;100.00
24610;BME280;12758;47.890;11.694;2023-01-26T12:37:32;93801.00;;;-0.81;100.00
24610;BME280;12758;47.890;11.694;2023-01-26T12:40:07;93805.50;;;-1.29;100.00
24610;BME280;12758;47.890;11.694;2023-01-26T12:42:41;93803.75;;;-1.13;100.00
24610;BME280;12758;47.890;11.694;2023-01-26T12:45:11;93802.66;;;-0.70;100.00
24610;BME280;12758;47.890;11.694;2023-01-26T12:47:41;93800.53;;;-0.68;100.00
24610;BME280;12758;47.890;11.694;2023-01-26T12:50:11;93793.97;;;-1.03;100.00
24610;BME280;12758;47.890;11.694;2023-01-26T12:52:43;93804.53;;;-1.18;100.00